Time;durP1;ratioP1;P1;durP2;ratioP2;P2;SDS_P1;SDS_P2;PMS_P1;PMS_P2;Temp;Humidity;BMP_temperature;BMP_pressure;BME280_temperature;BME280_humidity;BME280_pressure;Samples;Min_cycle;Max_cycle;Signal;HPM_P1;HPM_P2
2022/09/03 00:00:13;;;;;;;0.47;0.47;;;;;;;16.63;70.68;95187.56;4357063;32;20193;-63
2022/09/03 00:05:53;;;;;;;5.47;2.40;;;;;;;16.67;71.28;95193.81;4395795;27;20208;-60
2022/09/03 00:08:45;;;;;;;13.43;2.40;;;;;;;16.70;70.03;95195.06;4309376;32;20243;-60
2022/09/03 00:11:49;;;;;;;1.43;1.27;;;;;;;16.77;71.72;95196.06;4310420;32;20251;-59
2022/09/03 00:14:23;;;;;;;0.97;0.97;;;;;;;16.85;70.48;95199.72;4319185;32;20190;-59
2022/09/03 00:17:15;;;;;;;0.90;0.90;;;;;;;16.89;70.50;95189.91;4333502;32;20189;-60
2022/09/03 00:20:06;;;;;;;2.50;1.33;;;;;;;16.88;72.42;95192.91;4328823;32;20189;-59
2022/09/03 00:22:52;;;;;;;0.90;0.87;;;;;;;16.90;71.42;95201.41;4328200;32;20290;-59
2022/09/03 00:25:40;;;;;;;19.70;1.33;;;;;;;16.89;71.93;95206.00;4348892;32;20193;-59
2022/09/03 00:28:13;;;;;;;0.87;0.87;;;;;;;16.88;70.18;95200.97;4293622;32;20197;-59
2022/09/03 00:30:43;;;;;;;0.70;0.70;;;;;;;16.95;71.61;95195.84;4339073;32;20250;-60
2022/09/03 00:33:23;;;;;;;2.23;1.40;;;;;;;16.87;71.70;95186.78;4333442;32;20201;-59
2022/09/03 00:35:56;;;;;;;0.60;0.60;;;;;;;17.14;73.14;95196.03;4335776;32;20253;-59
2022/09/03 00:38:22;;;;;;;9.23;1.50;;;;;;;17.05;70.62;95195.34;4284798;32;20236;-60
2022/09/03 00:41:03;;;;;;;1.00;1.00;;;;;;;16.98;71.29;95187.12;4330164;32;20197;-59
2022/09/03 00:43:54;;;;;;;2.87;1.30;;;;;;;16.99;70.37;95194.03;4318181;32;20278;-59
2022/09/03 00:46:45;;;;;;;1.13;0.70;;;;;;;17.03;73.03;95179.62;4331487;32;20296;-59
2022/09/03 00:49:34;;;;;;;0.50;0.50;;;;;;;16.80;72.33;95175.87;4326036;32;20265;-60
2022/09/03 00:52:33;;;;;;;1.10;1.10;;;;;;;16.71;72.20;95178.66;4323580;32;20194;-59
2022/09/03 00:55:25;;;;;;;1.33;1.10;;;;;;;16.88;73.26;95187.56;4317378;32;20299;-59
2022/09/03 00:58:26;;;;;;;1.00;1.00;;;;;;;16.99;72.72;95189.47;4313567;32;20212;-59
2022/09/03 01:00:51;;;;;;;0.37;0.33;;;;;;;16.76;70.28;95193.72;4334427;32;20210;-60
2022/09/03 01:03:42;;;;;;;0.77;0.77;;;;;;;16.84;73.44;95192.81;4335257;32;20209;-59
2022/09/03 01:06:20;;;;;;;0.37;0.37;;;;;;;16.88;72.53;95199.06;4321308;32;20193;-59
2022/09/03 01:09:23;;;;;;;0.93;0.33;;;;;;;16.84;70.43;95192.81;4287562;33;20209;-59
2022/09/03 01:12:19;;;;;;;1.13;0.70;;;;;;;16.83;71.92;95193.94;4290377;32;20190;-60
2022/09/03 01:14:56;;;;;;;0.30;0.30;;;;;;;16.79;72.98;95196.53;4329820;32;20212;-59
2022/09/03 01:17:53;;;;;;;0.50;0.50;;;;;;;16.74;73.00;95191.37;4312326;32;20276;-59
2022/09/03 01:20:31;;;;;;;0.77;0.77;;;;;;;16.93;73.49;95184.66;4311935;32;20194;-59
2022/09/03 01:23:24;;;;;;;0.67;0.67;;;;;;;16.78;73.16;95188.81;4336672;32;20280;-59
2022/09/03 01:26:09;;;;;;;5.47;1.33;;;;;;;16.91;73.35;95195.72;4327652;32;20237;-59
2022/09/03 01:29:28;;;;;;;0.43;0.43;;;;;;;16.92;72.71;95199.97;4328010;32;20185;-59
2022/09/03 01:31:56;;;;;;;0.70;0.70;;;;;;;16.63;73.66;95192.09;4292447;33;20202;-59
2022/09/03 01:34:26;;;;;;;0.50;0.50;;;;;;;16.69;74.46;95193.50;4291244;33;20261;-60
2022/09/03 01:37:36;;;;;;;0.37;0.37;;;;;;;16.55;74.38;95193.00;4328688;32;20208;-59
2022/09/03 01:40:17;;;;;;;0.40;0.40;;;;;;;16.54;74.51;95194.91;4311722;33;20341;-59
2022/09/03 01:43:08;;;;;;;8.70;0.87;;;;;;;16.53;74.67;95188.00;4306081;32;20257;-63
2022/09/03 01:46:12;;;;;;;0.60;0.60;;;;;;;16.59;74.18;95192.03;4320417;32;20260;-59
2022/09/03 01:48:58;;;;;;;0.40;0.40;;;;;;;16.37;74.84;95179.06;4309250;32;20208;-60
2022/09/03 01:51:28;;;;;;;0.60;0.60;;;;;;;16.61;76.27;95181.75;4322781;32;20197;-60
2022/09/03 01:54:27;;;;;;;0.40;0.40;;;;;;;16.65;75.75;95189.91;4312458;32;20252;-60
2022/09/03 01:57:14;;;;;;;1.23;1.00;;;;;;;16.76;73.71;95185.69;4323805;32;20194;-60
2022/09/03 02:00:03;;;;;;;0.80;0.80;;;;;;;16.93;76.39;95177.41;4312541;32;20202;-60
2022/09/03 02:02:29;;;;;;;0.40;0.40;;;;;;;16.60;74.24;95177.50;4319700;32;20201;-60
2022/09/03 02:05:22;;;;;;;0.90;0.90;;;;;;;16.31;74.37;95175.03;4316287;32;20185;-59
2022/09/03 02:07:56;;;;;;;0.63;0.63;;;;;;;16.31;74.86;95173.12;4325317;32;20232;-59
2022/09/03 02:10:47;;;;;;;0.40;0.40;;;;;;;16.58;76.45;95170.94;4336528;32;20190;-59
2022/09/03 02:13:21;;;;;;;0.60;0.60;;;;;;;16.44;74.32;95160.53;4329959;32;20211;-59
2022/09/03 02:15:59;;;;;;;1.47;1.37;;;;;;;16.57;74.79;95162.09;4317740;32;20201;-60
2022/09/03 02:18:35;;;;;;;0.73;0.50;;;;;;;16.64;75.02;95161.56;4324525;32;20231;-60
2022/09/03 02:21:07;;;;;;;1.50;0.80;;;;;;;16.61;75.40;95157.66;4324101;32;20287;-59
2022/09/03 02:23:38;;;;;;;0.63;0.40;;;;;;;16.52;74.40;95169.56;4323357;32;20214;-59
2022/09/03 02:26:08;;;;;;;0.67;0.67;;;;;;;16.47;74.39;95163.31;4329813;32;20193;-59
2022/09/03 02:28:34;;;;;;;0.73;0.73;;;;;;;16.46;76.83;95172.47;4332220;32;20196;-59
2022/09/03 02:31:01;;;;;;;0.33;0.33;;;;;;;16.38;76.48;95176.06;4329388;32;20281;-59
2022/09/03 02:33:28;;;;;;;0.40;0.40;;;;;;;16.40;75.13;95178.41;4317953;32;20193;-59
2022/09/03 02:35:55;;;;;;;0.10;0.10;;;;;;;16.40;76.60;95179.19;4340215;32;20212;-59
2022/09/03 02:38:27;;;;;;;2.13;0.70;;;;;;;16.36;76.17;95180.94;4321016;32;20275;-60
2022/09/03 02:40:54;;;;;;;1.43;0.80;;;;;;;16.46;74.53;95183.19;4328521;32;20233;-59
2022/09/03 02:43:29;;;;;;;3.00;0.73;;;;;;;16.48;77.80;95174.81;4331109;32;20241;-59
2022/09/03 02:46:08;;;;;;;1.07;0.83;;;;;;;16.50;75.88;95177.94;4352643;32;20208;-59
2022/09/03 02:48:34;;;;;;;0.70;0.70;;;;;;;16.42;76.84;95179.59;4335280;32;20193;-60
2022/09/03 02:50:59;;;;;;;0.60;0.40;;;;;;;16.34;74.11;95183.19;4362150;32;20287;-59
2022/09/03 02:53:27;;;;;;;1.77;0.87;;;;;;;16.37;76.13;95185.19;4335798;32;20201;-60
2022/09/03 02:55:58;;;;;;;0.47;0.47;;;;;;;16.55;75.58;95174.25;4348117;32;20204;-59
2022/09/03 02:58:24;;;;;;;0.50;0.50;;;;;;;16.27;75.36;95174.91;4331003;32;20201;-60
2022/09/03 03:00:49;;;;;;;0.50;0.50;;;;;;;16.11;76.26;95182.81;4314956;32;20217;-60
2022/09/03 03:03:16;;;;;;;1.50;0.93;;;;;;;16.38;77.89;95186.75;4334497;32;20189;-59
2022/09/03 03:05:55;;;;;;;1.03;1.03;;;;;;;16.23;76.25;95183.91;4362672;32;20208;-59
2022/09/03 03:08:26;;;;;;;0.70;0.70;;;;;;;16.24;76.69;95175.56;4309192;32;20251;-60
2022/09/03 03:10:57;;;;;;;0.50;0.50;;;;;;;16.37;76.26;95182.50;4343072;32;20193;-59
2022/09/03 03:13:24;;;;;;;0.50;0.50;;;;;;;16.33;77.90;95173.59;4328133;32;20189;-59
2022/09/03 03:15:49;;;;;;;0.50;0.50;;;;;;;16.64;77.42;95167.69;4328231;32;20197;-59
2022/09/03 03:18:16;;;;;;;0.40;0.40;;;;;;;16.23;76.90;95174.00;4328766;32;20212;-59
2022/09/03 03:20:43;;;;;;;0.50;0.50;;;;;;;16.14;77.37;95167.97;4343520;32;20279;-60
2022/09/03 03:23:11;;;;;;;0.40;0.40;;;;;;;16.32;77.99;95172.00;4335539;32;20193;-61
2022/09/03 03:25:38;;;;;;;0.50;0.50;;;;;;;16.09;76.67;95184.25;4355148;32;20256;-60
2022/09/03 03:28:05;;;;;;;0.73;0.73;;;;;;;16.25;77.07;95179.03;4350698;32;20193;-59
2022/09/03 03:30:32;;;;;;;2.53;0.93;;;;;;;16.22;76.89;95172.44;4340178;32;20206;-60
2022/09/03 03:32:58;;;;;;;0.90;0.90;;;;;;;16.23;77.82;95179.34;4323295;32;20193;-59
2022/09/03 03:35:24;;;;;;;0.60;0.60;;;;;;;16.08;76.30;95177.31;4345293;32;20243;-59
2022/09/03 03:37:49;;;;;;;0.40;0.40;;;;;;;16.10;78.45;95175.87;4311784;32;20185;-59
2022/09/03 03:40:15;;;;;;;0.70;0.70;;;;;;;15.90;77.94;95181.28;4339516;32;20189;-59
2022/09/03 03:42:42;;;;;;;0.97;0.97;;;;;;;16.05;76.45;95186.78;4324626;32;20200;-59
2022/09/03 03:45:12;;;;;;;0.67;0.67;;;;;;;16.19;77.65;95188.41;4337135;32;20189;-59
2022/09/03 03:47:39;;;;;;;0.50;0.50;;;;;;;16.18;78.19;95187.62;4346486;32;20193;-60
2022/09/03 03:50:05;;;;;;;1.50;0.83;;;;;;;16.05;77.93;95191.37;4324736;32;20210;-59
2022/09/03 03:52:31;;;;;;;0.53;0.53;;;;;;;16.12;78.21;95194.28;4304401;32;20313;-59
2022/09/03 03:54:56;;;;;;;8.13;0.70;;;;;;;16.00;77.64;95199.63;4330300;32;20186;-59
2022/09/03 03:57:23;;;;;;;0.63;0.63;;;;;;;16.03;79.71;95190.91;4324547;32;20208;-59
2022/09/03 03:59:50;;;;;;;0.80;0.80;;;;;;;16.16;77.54;95189.84;4308186;32;20189;-60
2022/09/03 04:02:18;;;;;;;0.60;0.60;;;;;;;16.30;80.00;95184.94;4335706;32;20181;-59
2022/09/03 04:04:45;;;;;;;0.87;0.87;;;;;;;16.44;78.26;95188.09;4314219;32;20217;-59
2022/09/03 04:07:10;;;;;;;1.23;0.90;;;;;;;16.47;77.71;95183.97;4327812;32;20240;-60
2022/09/03 04:09:37;;;;;;;0.47;0.47;;;;;;;16.32;77.81;95172.00;4333892;32;20216;-59
2022/09/03 04:12:04;;;;;;;1.40;1.00;;;;;;;16.32;79.88;95174.69;4337465;32;20197;-60
2022/09/03 04:14:30;;;;;;;0.63;0.63;;;;;;;16.02;78.82;95173.28;4328751;32;20281;-59
2022/09/03 04:16:58;;;;;;;4.53;1.00;;;;;;;16.30;78.67;95178.81;4316462;32;20217;-59
2022/09/03 04:19:29;;;;;;;0.57;0.57;;;;;;;15.89;78.63;95179.72;4336848;32;20200;-59
2022/09/03 04:21:56;;;;;;;0.53;0.53;;;;;;;16.00;79.89;95176.28;4350395;32;20204;-59
2022/09/03 04:24:22;;;;;;;0.83;0.83;;;;;;;15.85;78.65;95184.16;4323044;32;20185;-59
2022/09/03 04:26:49;;;;;;;0.70;0.70;;;;;;;15.96;79.40;95179.97;4341115;32;20193;-59
2022/09/03 04:29:15;;;;;;;0.60;0.60;;;;;;;15.67;78.82;95184.34;4342205;32;20208;-60
2022/09/03 04:32:51;;;;;;;0.63;0.63;;;;;;;15.67;78.96;95184.34;4317840;32;20309;-59
2022/09/03 04:34:25;;;;;;;0.90;0.90;;;;;;;15.75;79.82;95188.06;4333790;32;20186;-60
2022/09/03 04:36:56;;;;;;;0.63;0.63;;;;;;;15.81;79.05;95186.72;4342998;32;20211;-60
2022/09/03 04:39:21;;;;;;;0.57;0.57;;;;;;;15.76;79.81;95190.41;4345047;32;20308;-59
2022/09/03 04:41:48;;;;;;;0.70;0.70;;;;;;;15.78;79.10;95200.78;4341159;32;20200;-59
2022/09/03 04:44:15;;;;;;;0.67;0.57;;;;;;;15.73;81.45;95199.06;4328408;32;20185;-59
2022/09/03 04:46:40;;;;;;;0.67;0.67;;;;;;;15.76;79.74;95193.06;4340298;32;20197;-60
2022/09/03 04:49:08;;;;;;;0.63;0.63;;;;;;;15.79;79.34;95200.41;4345642;32;20223;-59
2022/09/03 04:51:35;;;;;;;2.23;1.13;;;;;;;15.90;80.50;95197.34;4312367;32;20239;-59
2022/09/03 04:54:02;;;;;;;0.53;0.53;;;;;;;15.86;79.41;95199.09;4345085;32;20236;-59
2022/09/03 04:56:33;;;;;;;3.00;1.07;;;;;;;15.85;80.57;95198.31;4331377;32;20211;-59
2022/09/03 04:59:03;;;;;;;0.90;0.90;;;;;;;15.99;79.68;95187.34;4322341;32;20189;-59
2022/09/03 05:01:31;;;;;;;0.57;0.57;;;;;;;16.05;78.95;95196.72;4307645;33;21285;-59
2022/09/03 05:03:58;;;;;;;0.40;0.40;;;;;;;15.75;79.61;95215.59;4350593;32;20193;-60
2022/09/03 05:06:28;;;;;;;1.13;0.67;;;;;;;15.88;79.43;95212.94;4353809;32;20204;-60
2022/09/03 05:08:54;;;;;;;1.30;0.87;;;;;;;16.06;79.10;95217.78;4335877;32;20186;-59
2022/09/03 05:11:23;;;;;;;0.87;0.87;;;;;;;16.20;78.76;95216.72;4344533;32;20196;-60
2022/09/03 05:13:53;;;;;;;1.03;0.93;;;;;;;16.31;78.63;95217.88;4325509;32;20202;-60
2022/09/03 05:16:19;;;;;;;0.53;0.53;;;;;;;16.19;78.86;95215.94;4314846;32;20202;-59
2022/09/03 05:18:47;;;;;;;0.10;0.10;;;;;;;15.95;78.43;95213.97;4336173;32;20191;-59
2022/09/03 05:21:15;;;;;;;2.53;1.13;;;;;;;16.05;78.55;95216.22;4334933;32;20260;-66
2022/09/03 05:23:43;;;;;;;0.40;0.40;;;;;;;16.23;78.72;95216.03;4312843;32;20201;-59
2022/09/03 05:26:18;;;;;;;0.77;0.77;;;;;;;16.20;77.49;95222.87;4347870;32;20184;-59
2022/09/03 05:28:45;;;;;;;1.57;0.50;;;;;;;16.33;78.35;95232.47;4334192;32;20189;-59
2022/09/03 05:31:20;;;;;;;9.03;1.40;;;;;;;16.33;76.37;95240.50;4346799;32;20184;-59
2022/09/03 05:33:51;;;;;;;0.50;0.50;;;;;;;16.25;74.16;95240.59;4325457;32;20234;-59
2022/09/03 05:36:24;;;;;;;0.53;0.53;;;;;;;16.15;78.29;95247.94;4332043;32;20291;-59
2022/09/03 05:38:56;;;;;;;0.63;0.63;;;;;;;16.24;77.49;95258.56;4345865;32;20251;-59
2022/09/03 05:41:22;;;;;;;0.53;0.53;;;;;;;16.12;76.13;95269.22;4333114;32;20189;-59
2022/09/03 05:43:57;;;;;;;0.83;0.83;;;;;;;16.07;76.91;95272.09;4358553;32;20276;-59
2022/09/03 05:46:30;;;;;;;0.90;0.90;;;;;;;16.08;79.37;95268.31;4339724;32;20196;-59
2022/09/03 05:48:58;;;;;;;0.60;0.60;;;;;;;16.03;75.63;95263.94;4337282;32;20178;-59
2022/09/03 05:51:24;;;;;;;0.90;0.90;;;;;;;16.02;75.36;95254.34;4342672;32;20212;-59
2022/09/03 05:53:54;;;;;;;2.53;1.00;;;;;;;16.02;78.11;95261.59;4342421;32;20323;-59
2022/09/03 05:56:23;;;;;;;1.60;0.83;;;;;;;16.21;78.73;95259.22;4324031;32;20213;-59
2022/09/03 05:58:51;;;;;;;1.00;1.00;;;;;;;16.35;78.78;95246.31;4303090;32;20205;-59
2022/09/03 06:01:21;;;;;;;0.97;0.40;;;;;;;16.42;76.32;95251.91;4323065;32;20235;-59
2022/09/03 06:03:56;;;;;;;1.57;1.47;;;;;;;16.64;78.28;95258.00;4342306;32;20257;-59
2022/09/03 06:06:24;;;;;;;8.50;1.13;;;;;;;16.68;77.74;95258.91;4314599;32;20211;-59
2022/09/03 06:08:55;;;;;;;1.07;1.07;;;;;;;16.79;76.69;95270.75;4327498;32;20189;-59
2022/09/03 06:11:22;;;;;;;0.50;0.50;;;;;;;16.85;76.04;95258.69;4322120;32;20229;-59
2022/09/03 06:13:50;;;;;;;4.10;1.27;;;;;;;16.84;75.80;95267.84;4340407;32;20294;-59
2022/09/03 06:16:16;;;;;;;4.93;1.53;;;;;;;16.88;77.16;95263.38;4350791;32;20210;-59
2022/09/03 06:18:42;;;;;;;1.30;1.27;;;;;;;16.84;76.49;95260.59;4335598;32;20216;-59
2022/09/03 06:21:08;;;;;;;0.73;0.73;;;;;;;16.89;76.72;95256.91;4339410;32;20201;-60
2022/09/03 06:23:35;;;;;;;2.30;0.90;;;;;;;16.94;76.47;95259.38;4305759;32;20209;-59
2022/09/03 06:26:13;;;;;;;0.40;0.40;;;;;;;16.97;76.75;95265.97;4344915;32;20197;-59
2022/09/03 06:28:42;;;;;;;0.40;0.40;;;;;;;17.00;76.10;95259.94;4330391;32;20248;-59
2022/09/03 06:31:15;;;;;;;0.67;0.67;;;;;;;17.00;75.11;95271.44;4347071;32;20249;-60
2022/09/03 06:33:43;;;;;;;0.70;0.70;;;;;;;16.88;75.10;95263.38;4350644;32;20271;-60
2022/09/03 06:36:18;;;;;;;0.80;0.80;;;;;;;16.88;75.08;95262.59;4327692;32;20201;-60
2022/09/03 06:38:46;;;;;;;1.17;1.00;;;;;;;17.01;77.20;95267.66;4346059;32;20244;-60
2022/09/03 06:41:17;;;;;;;1.53;1.30;;;;;;;17.07;76.89;95270.88;4350870;32;20245;-60
2022/09/03 06:43:45;;;;;;;0.50;0.50;;;;;;;17.08;77.62;95264.38;4325469;32;20258;-60
2022/09/03 06:46:13;;;;;;;1.20;0.93;;;;;;;17.22;76.51;95274.78;4326135;32;20204;-61
2022/09/03 06:48:41;;;;;;;0.93;0.93;;;;;;;17.21;76.84;95281.28;4330803;32;20193;-61
2022/09/03 06:51:15;;;;;;;0.87;0.87;;;;;;;17.24;76.83;95281.38;4330476;32;20197;-61
2022/09/03 06:53:44;;;;;;;0.57;0.57;;;;;;;17.24;76.07;95288.66;4288366;32;20194;-61
2022/09/03 06:56:11;;;;;;;10.27;1.23;;;;;;;17.19;77.10;95292.31;4334741;32;20197;-60
2022/09/03 06:58:44;;;;;;;11.23;1.37;;;;;;;16.99;75.07;95285.97;4296211;32;20225;-60
2022/09/03 07:01:19;;;;;;;0.97;0.90;;;;;;;17.02;76.90;95303.28;4337242;32;20327;-61
2022/09/03 07:03:51;;;;;;;0.97;0.97;;;;;;;16.88;76.22;95297.44;4311666;32;20194;-61
2022/09/03 07:06:20;;;;;;;0.90;0.90;;;;;;;16.92;77.53;95303.69;4328379;32;20236;-61
2022/09/03 07:08:47;;;;;;;3.00;1.80;;;;;;;16.96;78.08;95293.88;4353123;32;20223;-60
2022/09/03 07:11:19;;;;;;;1.33;0.97;;;;;;;16.98;77.33;95300.47;4353918;32;20204;-61
2022/09/03 07:13:46;;;;;;;1.30;1.20;;;;;;;16.81;78.22;95295.31;4312936;32;20197;-61
2022/09/03 07:16:27;;;;;;;1.10;1.10;;;;;;;16.75;79.56;95296.66;4315068;32;20196;-61
2022/09/03 07:18:53;;;;;;;0.60;0.60;;;;;;;16.79;80.02;95298.34;4329657;32;20193;-59
2022/09/03 07:21:44;;;;;;;1.23;1.17;;;;;;;16.88;79.90;95300.13;4343455;32;20204;-61
2022/09/03 07:24:10;;;;;;;0.80;0.80;;;;;;;16.92;80.89;95306.37;4257563;32;20202;-63
2022/09/03 07:26:39;;;;;;;1.23;1.13;;;;;;;16.94;81.42;95312.19;4292210;32;20208;-60
2022/09/03 07:29:06;;;;;;;1.13;1.10;;;;;;;16.73;81.10;95310.38;4296905;32;20208;-61
2022/09/03 07:31:37;;;;;;;1.47;1.37;;;;;;;16.42;83.39;95308.13;4342296;32;20193;-60
2022/09/03 07:34:07;;;;;;;1.53;1.43;;;;;;;16.44;83.23;95319.31;4350430;32;20186;-61
2022/09/03 07:36:40;;;;;;;0.87;0.80;;;;;;;16.48;83.12;95312.19;4297268;32;20300;-61
2022/09/03 07:39:08;;;;;;;0.40;0.40;;;;;;;16.39;83.32;95306.13;4269969;32;20205;-61
2022/09/03 07:41:34;;;;;;;0.90;0.90;;;;;;;16.54;83.12;95314.66;4296834;33;20190;-59
2022/09/03 07:44:04;;;;;;;0.50;0.50;;;;;;;16.73;82.65;95313.06;4334123;32;20283;-60
2022/09/03 07:46:32;;;;;;;0.77;0.77;;;;;;;16.58;83.38;95307.53;4306859;32;20373;-59
2022/09/03 07:49:02;;;;;;;1.07;1.07;;;;;;;16.63;82.91;95316.16;4331128;32;20209;-59
2022/09/03 07:51:31;;;;;;;2.60;0.70;;;;;;;16.73;83.39;95315.72;4300825;32;20200;-71
2022/09/03 07:54:00;;;;;;;0.57;0.57;;;;;;;16.76;84.07;95312.41;4319289;32;20198;-65
2022/09/03 07:56:29;;;;;;;1.20;1.20;;;;;;;16.87;83.39;95314.63;4328406;32;20226;-68
2022/09/03 07:58:56;;;;;;;0.77;0.77;;;;;;;16.94;83.37;95306.81;4309304;32;20194;-70
2022/09/03 08:01:24;;;;;;;0.70;0.70;;;;;;;16.86;83.61;95310.38;4293589;32;20190;-70
2022/09/03 08:03:52;;;;;;;1.53;1.43;;;;;;;16.63;85.38;95321.50;4248996;32;20209;-69
2022/09/03 08:06:22;;;;;;;1.03;1.03;;;;;;;16.65;85.58;95310.44;4264315;32;20193;-70
2022/09/03 08:08:57;;;;;;;4.23;0.90;;;;;;;16.85;84.79;95325.69;4329472;32;20212;-70
2022/09/03 08:11:26;;;;;;;1.00;1.00;;;;;;;16.70;85.34;95326.31;4318603;32;20189;-70
2022/09/03 08:14:01;;;;;;;1.23;1.13;;;;;;;16.85;84.70;95333.72;4349494;32;20185;-70
2022/09/03 08:16:32;;;;;;;0.90;0.90;;;;;;;16.79;86.01;95322.44;4351845;32;20207;-69
2022/09/03 08:18:57;;;;;;;2.73;1.63;;;;;;;16.70;86.61;95323.66;4294136;32;20190;-67
2022/09/03 08:21:26;;;;;;;2.67;0.60;;;;;;;16.59;87.50;95325.16;4328654;32;20215;-68
2022/09/03 08:24:01;;;;;;;1.00;1.00;;;;;;;16.85;87.10;95323.00;4327444;32;20240;-68
2022/09/03 08:26:30;;;;;;;1.00;1.00;;;;;;;16.97;86.52;95320.34;4329035;32;20238;-68
2022/09/03 08:29:01;;;;;;;1.30;1.23;;;;;;;17.07;86.48;95319.91;4344999;32;20210;-69
2022/09/03 08:31:28;;;;;;;1.80;1.20;;;;;;;17.22;86.79;95317.69;4329388;32;20251;-69
2022/09/03 08:33:55;;;;;;;0.87;0.87;;;;;;;17.29;86.51;95321.34;4323403;32;20208;-69
2022/09/03 08:36:24;;;;;;;1.27;1.27;;;;;;;17.24;86.96;95318.91;4312853;32;20200;-70
2022/09/03 08:38:57;;;;;;;0.90;0.90;;;;;;;17.31;86.74;95312.97;4329277;32;20206;-68
2022/09/03 08:41:30;;;;;;;5.73;1.43;;;;;;;17.22;87.99;95323.06;4331991;32;20205;-68
2022/09/03 08:44:33;;;;;;;0.93;0.93;;;;;;;17.31;87.74;95321.81;4318308;32;20253;-69
2022/09/03 08:47:30;;;;;;;1.23;1.23;;;;;;;17.40;87.48;95317.12;4341111;32;20193;-68
2022/09/03 08:50:16;;;;;;;1.13;1.13;;;;;;;17.47;87.62;95311.97;4295889;32;20205;-69
2022/09/03 08:52:49;;;;;;;0.77;0.77;;;;;;;17.64;87.04;95313.66;4329973;32;20242;-68
2022/09/03 08:55:20;;;;;;;1.70;1.60;;;;;;;17.69;87.94;95315.31;4319900;32;20255;-68
2022/09/03 08:57:50;;;;;;;0.97;0.97;;;;;;;17.82;86.35;95316.88;4309315;32;20215;-68
2022/09/03 09:00:17;;;;;;;1.47;1.37;;;;;;;17.80;85.88;95311.84;4320652;32;20189;-68
2022/09/03 09:03:31;;;;;;;1.50;1.40;;;;;;;17.87;86.15;95305.13;4340379;32;20213;-68
2022/09/03 09:06:21;;;;;;;1.47;1.47;;;;;;;17.90;86.05;95315.94;4319955;32;20269;-70
2022/09/03 09:09:11;;;;;;;1.20;1.20;;;;;;;17.93;85.75;95307.22;4331888;32;20207;-68
2022/09/03 09:12:16;;;;;;;1.03;0.93;;;;;;;18.05;86.03;95309.09;4301295;32;20198;-70
2022/09/03 09:15:06;;;;;;;0.70;0.70;;;;;;;18.18;85.29;95305.22;4344959;32;20280;-68
2022/09/03 09:18:06;;;;;;;4.47;1.63;;;;;;;18.29;84.40;95313.59;4311466;32;20203;-69
2022/09/03 09:20:54;;;;;;;4.70;4.30;;;;;;;18.37;84.85;95308.06;4353453;32;20190;-69
2022/09/03 09:23:31;;;;;;;2.07;1.97;;;;;;;18.49;83.67;95302.62;4339957;32;20222;-69
2022/09/03 09:26:00;;;;;;;2.00;1.90;;;;;;;18.58;84.22;95304.38;4331380;32;20197;-70
2022/09/03 09:28:49;;;;;;;1.03;1.03;;;;;;;18.66;82.87;95296.19;4323765;32;20217;-69
2022/09/03 09:31:17;;;;;;;0.63;0.63;;;;;;;18.66;84.08;95292.72;4330938;32;20227;-69
2022/09/03 09:33:45;;;;;;;1.67;1.40;;;;;;;18.70;83.24;95291.69;4313833;32;20216;-69
2022/09/03 09:36:18;;;;;;;0.93;0.93;;;;;;;18.79;82.38;95291.50;4347568;32;20208;-68
2022/09/03 09:38:47;;;;;;;1.30;1.30;;;;;;;18.86;82.41;95289.00;4310529;32;20220;-67
2022/09/03 09:41:20;;;;;;;1.10;1.03;;;;;;;18.85;82.48;95285.53;4347515;32;20251;-67
2022/09/03 09:43:47;;;;;;;0.77;0.77;;;;;;;18.90;82.32;95287.19;4346849;32;20260;-66
2022/09/03 09:46:24;;;;;;;0.80;0.80;;;;;;;18.99;81.41;95282.41;4314764;32;20253;-69
2022/09/03 09:48:56;;;;;;;0.60;0.60;;;;;;;18.98;82.35;95280.06;4319792;32;20207;-68
2022/09/03 09:51:30;;;;;;;0.40;0.40;;;;;;;19.07;82.40;95286.84;4323572;32;20302;-68
2022/09/03 09:54:18;;;;;;;0.70;0.70;;;;;;;19.11;81.19;95285.03;4324050;32;20193;-68
2022/09/03 09:56:57;;;;;;;0.80;0.80;;;;;;;19.26;79.51;95288.03;4338347;32;20189;-68
2022/09/03 09:59:23;;;;;;;1.67;1.53;;;;;;;19.35;78.80;95281.31;4328197;32;20209;-68
2022/09/03 10:01:51;;;;;;;1.77;1.00;;;;;;;19.32;78.41;95289.34;4312332;32;20212;-68
2022/09/03 10:04:30;;;;;;;0.70;0.70;;;;;;;19.34;78.95;95281.66;4342095;32;20232;-65
2022/09/03 10:07:12;;;;;;;0.70;0.70;;;;;;;19.36;78.71;95279.41;4301250;32;20205;-68
2022/09/03 10:09:44;;;;;;;1.00;0.87;;;;;;;19.38;79.18;95277.94;4334106;32;20299;-68
2022/09/03 10:12:50;;;;;;;0.67;0.67;;;;;;;19.40;78.87;95281.06;4320276;32;20220;-68
2022/09/03 10:15:41;;;;;;;2.53;1.43;;;;;;;19.44;78.89;95286.53;4256004;33;20261;-68
2022/09/03 10:18:29;;;;;;;0.70;0.70;;;;;;;19.41;78.66;95285.31;4271453;32;20206;-68
2022/09/03 10:21:43;;;;;;;0.20;0.20;;;;;;;19.47;78.35;95283.16;4323620;32;20219;-68
2022/09/03 10:24:21;;;;;;;0.43;0.43;;;;;;;19.49;78.27;95283.56;4260697;33;20195;-67
2022/09/03 10:26:46;;;;;;;0.40;0.40;;;;;;;19.50;78.74;95288.63;4273781;33;20219;-65
2022/09/03 10:29:28;;;;;;;0.30;0.30;;;;;;;19.61;78.22;95285.38;4280877;32;20223;-67
2022/09/03 10:32:10;;;;;;;2.67;0.57;;;;;;;19.68;77.33;95286.34;4331361;32;20216;-67
2022/09/03 10:35:11;;;;;;;0.20;0.20;;;;;;;19.71;77.41;95280.25;4344390;32;20319;-72
2022/09/03 10:38:01;;;;;;;0.50;0.50;;;;;;;19.76;75.75;95292.63;4347270;32;20188;-69
2022/09/03 10:41:19;;;;;;;0.63;0.63;;;;;;;19.78;75.73;95288.47;4297910;32;20259;-67
2022/09/03 10:44:09;;;;;;;0.57;0.57;;;;;;;19.83;77.45;95287.41;4333141;32;20261;-73
2022/09/03 10:47:18;;;;;;;0.80;0.80;;;;;;;19.89;76.35;95286.78;4308078;32;20208;-71
2022/09/03 10:50:16;;;;;;;0.60;0.47;;;;;;;19.97;75.08;95281.53;4316494;32;20193;-67
2022/09/03 10:53:12;;;;;;;0.43;0.43;;;;;;;20.06;73.48;95266.72;4301662;32;20288;-75
2022/09/03 10:55:47;;;;;;;0.70;0.70;;;;;;;20.23;71.94;95257.44;4318799;32;20201;-73
2022/09/03 10:58:55;;;;;;;0.50;0.50;;;;;;;20.27;72.17;95258.28;4300085;32;20287;-69
2022/09/03 11:01:48;;;;;;;0.30;0.30;;;;;;;20.47;70.98;95264.44;4309939;32;20264;-69
2022/09/03 11:04:53;;;;;;;0.50;0.50;;;;;;;20.45;71.69;95259.41;4303324;32;20189;-74
2022/09/03 11:07:25;;;;;;;0.67;0.43;;;;;;;20.49;72.17;95256.78;4302811;32;20201;-74
2022/09/03 11:10:18;;;;;;;1.30;1.20;;;;;;;20.48;72.39;95256.00;4288572;32;20195;-74
2022/09/03 11:13:16;;;;;;;0.70;0.67;;;;;;;20.48;72.30;95256.00;4281155;32;20199;-69
2022/09/03 11:15:45;;;;;;;0.70;0.70;;;;;;;20.49;70.99;95257.56;4327406;32;20197;-67
2022/09/03 11:18:36;;;;;;;0.87;0.60;;;;;;;20.55;69.84;95258.84;4322925;32;20268;-67
2022/09/03 11:21:15;;;;;;;0.33;0.33;;;;;;;20.58;70.12;95252.69;4324343;32;20285;-69
2022/09/03 11:23:45;;;;;;;0.47;0.47;;;;;;;20.63;70.68;95256.25;4350149;32;20189;-69
2022/09/03 11:26:25;;;;;;;0.30;0.30;;;;;;;20.55;71.60;95245.34;4313348;32;20193;-69
2022/09/03 11:29:07;;;;;;;0.30;0.30;;;;;;;20.54;71.36;95243.78;4308698;32;20200;-69
2022/09/03 11:31:58;;;;;;;0.30;0.30;;;;;;;20.61;69.53;95235.03;4329717;32;20215;-69
2022/09/03 11:34:32;;;;;;;0.20;0.20;;;;;;;20.64;69.75;95230.84;4353625;32;20204;-69
2022/09/03 11:37:13;;;;;;;0.20;0.20;;;;;;;20.65;69.70;95235.88;4356659;32;20200;-69
2022/09/03 11:39:41;;;;;;;0.50;0.50;;;;;;;20.64;69.97;95233.53;4337516;32;20304;-69
2022/09/03 11:42:23;;;;;;;0.87;0.87;;;;;;;20.61;70.06;95226.16;4339167;32;20201;-69
2022/09/03 11:44:52;;;;;;;0.50;0.50;;;;;;;20.62;70.04;95227.72;4326797;32;20181;-69
2022/09/03 11:47:23;;;;;;;3.30;0.73;;;;;;;20.71;69.83;95234.44;4349636;32;20203;-69
2022/09/03 11:50:06;;;;;;;0.10;0.10;;;;;;;20.76;68.58;95236.06;4325327;32;20228;-69
2022/09/03 11:52:32;;;;;;;0.57;0.57;;;;;;;20.75;68.29;95232.59;4326575;32;20408;-69
2022/09/03 11:55:00;;;;;;;0.53;0.53;;;;;;;20.79;68.52;95228.03;4341923;32;20199;-69
2022/09/03 11:57:32;;;;;;;0.47;0.47;;;;;;;20.93;67.17;95230.97;4347552;32;20203;-69
2022/09/03 12:00:23;;;;;;;0.20;0.20;;;;;;;20.91;67.29;95232.47;4352520;32;20193;-69
2022/09/03 12:03:00;;;;;;;0.33;0.33;;;;;;;20.93;65.89;95220.19;4327695;32;20184;-70
2022/09/03 12:05:36;;;;;;;0.60;0.60;;;;;;;20.93;66.44;95219.41;4346664;32;20203;-69
2022/09/03 12:08:50;;;;;;;0.50;0.50;;;;;;;20.92;66.48;95215.13;4341420;32;20275;-69
2022/09/03 12:11:35;;;;;;;0.10;0.10;;;;;;;20.82;66.38;95203.03;4326260;32;20204;-69
2022/09/03 12:14:25;;;;;;;0.10;0.10;;;;;;;20.81;66.77;95206.87;4329718;32;20219;-69
2022/09/03 12:17:16;;;;;;;0.30;0.30;;;;;;;20.81;66.98;95211.47;4320069;32;20216;-69